sensor_id;sensor_type;location;lat;lon;timestamp;P1;durP1;ratioP1;P2;durP2;ratioP2
59587;SDS011;45412;54.472;18.464;2023-04-06T14:27:05;6.40;;;2.00;;
59587;SDS011;45412;54.472;18.464;2023-04-06T14:29:53;5.10;;;1.60;;
59587;SDS011;45412;54.472;18.464;2023-04-06T14:32:42;6.30;;;1.70;;
59587;SDS011;45412;54.472;18.464;2023-04-06T14:35:32;4.80;;;1.60;;
59587;SDS011;45412;54.472;18.464;2023-04-06T14:38:20;4.70;;;1.40;;
59587;SDS011;45412;54.472;18.464;2023-04-06T14:41:15;5.30;;;1.60;;
59587;SDS011;45412;54.472;18.464;2023-04-06T14:44:04;4.90;;;1.70;;
59587;SDS011;45412;54.472;18.464;2023-04-06T14:46:53;5.50;;;1.60;;
59587;SDS011;45412;54.472;18.464;2023-04-06T14:49:41;6.10;;;1.80;;
59587;SDS011;45412;54.472;18.464;2023-04-06T14:52:30;5.60;;;1.80;;
59587;SDS011;45412;54.472;18.464;2023-04-06T14:55:19;6.30;;;1.80;;
59587;SDS011;45412;54.472;18.464;2023-04-06T14:58:08;9.20;;;2.10;;
59587;SDS011;45412;54.472;18.464;2023-04-06T15:00:57;7.40;;;2.10;;
59587;SDS011;45412;54.472;18.464;2023-04-06T15:03:47;7.60;;;2.30;;
59587;SDS011;45412;54.472;18.464;2023-04-06T15:06:36;6.00;;;2.10;;
59587;SDS011;45412;54.472;18.464;2023-04-06T15:09:25;6.00;;;1.90;;
59587;SDS011;45412;54.472;18.464;2023-04-06T15:12:13;6.20;;;2.00;;
59587;SDS011;45412;54.472;18.464;2023-04-06T15:15:02;7.90;;;2.40;;
59587;SDS011;45412;54.472;18.464;2023-04-06T15:17:53;6.40;;;2.30;;
59587;SDS011;45412;54.472;18.464;2023-04-06T15:20:41;5.90;;;2.00;;
59587;SDS011;45412;54.472;18.464;2023-04-06T15:23:29;6.10;;;2.10;;
59587;SDS011;45412;54.472;18.464;2023-04-06T15:26:17;6.20;;;2.20;;
59587;SDS011;45412;54.472;18.464;2023-04-06T15:29:06;7.30;;;2.10;;
59587;SDS011;45412;54.472;18.464;2023-04-06T15:31:55;7.90;;;2.00;;
59587;SDS011;45412;54.472;18.464;2023-04-06T15:34:43;6.10;;;1.80;;
59587;SDS011;45412;54.472;18.464;2023-04-06T15:37:31;6.80;;;2.00;;
59587;SDS011;45412;54.472;18.464;2023-04-06T15:40:20;6.50;;;1.70;;
59587;SDS011;45412;54.472;18.464;2023-04-06T15:43:08;5.60;;;1.70;;
59587;SDS011;45412;54.472;18.464;2023-04-06T15:45:57;6.60;;;1.90;;
59587;SDS011;45412;54.472;18.464;2023-04-06T15:48:46;5.60;;;2.00;;
59587;SDS011;45412;54.472;18.464;2023-04-06T15:51:35;6.40;;;1.80;;
59587;SDS011;45412;54.472;18.464;2023-04-06T15:54:24;8.30;;;3.00;;
59587;SDS011;45412;54.472;18.464;2023-04-06T15:57:14;7.80;;;2.30;;
59587;SDS011;45412;54.472;18.464;2023-04-06T16:00:03;6.30;;;2.30;;
59587;SDS011;45412;54.472;18.464;2023-04-06T16:02:56;5.90;;;1.90;;
59587;SDS011;45412;54.472;18.464;2023-04-06T16:05:46;5.70;;;1.70;;
59587;SDS011;45412;54.472;18.464;2023-04-06T16:08:51;6.20;;;1.90;;
59587;SDS011;45412;54.472;18.464;2023-04-06T16:11:40;7.10;;;2.40;;
59587;SDS011;45412;54.472;18.464;2023-04-06T16:14:28;8.00;;;2.60;;
59587;SDS011;45412;54.472;18.464;2023-04-06T16:17:17;6.10;;;2.20;;
59587;SDS011;45412;54.472;18.464;2023-04-06T16:20:05;7.90;;;2.60;;
59587;SDS011;45412;54.472;18.464;2023-04-06T16:22:54;8.70;;;2.70;;
59587;SDS011;45412;54.472;18.464;2023-04-06T16:25:42;7.40;;;2.50;;
59587;SDS011;45412;54.472;18.464;2023-04-06T16:28:32;9.60;;;2.90;;
59587;SDS011;45412;54.472;18.464;2023-04-06T16:31:23;7.70;;;2.60;;
59587;SDS011;45412;54.472;18.464;2023-04-06T16:34:12;7.50;;;2.20;;
59587;SDS011;45412;54.472;18.464;2023-04-06T16:37:01;5.60;;;2.00;;
59587;SDS011;45412;54.472;18.464;2023-04-06T16:39:50;6.30;;;2.30;;
59587;SDS011;45412;54.472;18.464;2023-04-06T16:42:43;7.40;;;2.40;;
59587;SDS011;45412;54.472;18.464;2023-04-06T16:45:32;6.80;;;2.20;;
59587;SDS011;45412;54.472;18.464;2023-04-06T16:48:20;7.70;;;2.20;;
59587;SDS011;45412;54.472;18.464;2023-04-06T16:51:09;5.90;;;2.10;;
59587;SDS011;45412;54.472;18.464;2023-04-06T16:53:58;7.10;;;2.40;;
59587;SDS011;45412;54.472;18.464;2023-04-06T16:56:47;9.20;;;3.10;;
59587;SDS011;45412;54.472;18.464;2023-04-06T16:59:35;9.90;;;2.80;;
59587;SDS011;45412;54.472;18.464;2023-04-06T17:02:24;8.60;;;2.80;;
59587;SDS011;45412;54.472;18.464;2023-04-06T17:05:13;5.90;;;2.10;;
59587;SDS011;45412;54.472;18.464;2023-04-06T17:08:01;6.60;;;2.40;;
59587;SDS011;45412;54.472;18.464;2023-04-06T17:10:50;8.30;;;3.00;;
59587;SDS011;45412;54.472;18.464;2023-04-06T17:13:50;7.70;;;2.50;;
59587;SDS011;45412;54.472;18.464;2023-04-06T17:16:38;8.30;;;2.60;;
59587;SDS011;45412;54.472;18.464;2023-04-06T17:19:26;7.50;;;2.60;;
59587;SDS011;45412;54.472;18.464;2023-04-06T17:22:18;7.50;;;2.90;;
59587;SDS011;45412;54.472;18.464;2023-04-06T17:25:08;7.30;;;2.70;;
59587;SDS011;45412;54.472;18.464;2023-04-06T17:27:56;8.30;;;2.70;;
59587;SDS011;45412;54.472;18.464;2023-04-06T17:30:44;9.60;;;3.00;;
59587;SDS011;45412;54.472;18.464;2023-04-06T17:33:33;8.10;;;2.60;;
59587;SDS011;45412;54.472;18.464;2023-04-06T17:36:22;10.80;;;3.60;;
59587;SDS011;45412;54.472;18.464;2023-04-06T17:39:11;9.70;;;3.40;;
59587;SDS011;45412;54.472;18.464;2023-04-06T17:41:59;9.10;;;3.00;;
59587;SDS011;45412;54.472;18.464;2023-04-06T17:44:51;9.10;;;3.40;;
59587;SDS011;45412;54.472;18.464;2023-04-06T17:47:40;7.80;;;2.90;;
59587;SDS011;45412;54.472;18.464;2023-04-06T17:50:28;9.20;;;3.20;;
59587;SDS011;45412;54.472;18.464;2023-04-06T17:53:17;9.40;;;4.30;;
59587;SDS011;45412;54.472;18.464;2023-04-06T17:56:07;11.50;;;3.60;;
59587;SDS011;45412;54.472;18.464;2023-04-06T17:58:55;9.80;;;3.70;;
59587;SDS011;45412;54.472;18.464;2023-04-06T18:01:44;12.10;;;3.50;;
59587;SDS011;45412;54.472;18.464;2023-04-06T18:04:32;12.20;;;4.30;;
59587;SDS011;45412;54.472;18.464;2023-04-06T18:07:22;13.10;;;3.90;;
59587;SDS011;45412;54.472;18.464;2023-04-06T18:10:10;10.90;;;3.50;;
59587;SDS011;45412;54.472;18.464;2023-04-06T18:12:59;14.20;;;4.20;;
59587;SDS011;45412;54.472;18.464;2023-04-06T18:15:48;12.20;;;4.80;;
59587;SDS011;45412;54.472;18.464;2023-04-06T18:18:35;11.60;;;3.90;;
59587;SDS011;45412;54.472;18.464;2023-04-06T18:21:26;9.60;;;3.60;;
59587;SDS011;45412;54.472;18.464;2023-04-06T18:24:15;9.90;;;3.10;;
59587;SDS011;45412;54.472;18.464;2023-04-06T18:27:19;10.10;;;3.80;;
59587;SDS011;45412;54.472;18.464;2023-04-06T18:30:08;11.00;;;4.00;;
59587;SDS011;45412;54.472;18.464;2023-04-06T18:32:59;7.70;;;3.10;;
59587;SDS011;45412;54.472;18.464;2023-04-06T18:35:48;10.10;;;3.50;;
59587;SDS011;45412;54.472;18.464;2023-04-06T18:38:41;11.10;;;4.00;;
59587;SDS011;45412;54.472;18.464;2023-04-06T18:41:35;11.50;;;3.20;;
59587;SDS011;45412;54.472;18.464;2023-04-06T18:44:25;9.80;;;3.30;;
59587;SDS011;45412;54.472;18.464;2023-04-06T18:47:13;12.20;;;3.30;;
59587;SDS011;45412;54.472;18.464;2023-04-06T18:50:02;8.30;;;3.30;;
59587;SDS011;45412;54.472;18.464;2023-04-06T18:52:50;8.00;;;2.80;;
59587;SDS011;45412;54.472;18.464;2023-04-06T18:55:40;9.50;;;3.10;;
59587;SDS011;45412;54.472;18.464;2023-04-06T18:58:32;12.80;;;3.50;;
59587;SDS011;45412;54.472;18.464;2023-04-06T19:01:27;10.40;;;3.20;;
59587;SDS011;45412;54.472;18.464;2023-04-06T19:04:16;9.60;;;3.50;;
59587;SDS011;45412;54.472;18.464;2023-04-06T19:07:04;8.30;;;3.20;;
59587;SDS011;45412;54.472;18.464;2023-04-06T19:09:53;9.10;;;3.20;;
59587;SDS011;45412;54.472;18.464;2023-04-06T19:12:41;9.50;;;3.20;;
59587;SDS011;45412;54.472;18.464;2023-04-06T19:15:30;10.70;;;3.40;;
59587;SDS011;45412;54.472;18.464;2023-04-06T19:18:18;10.40;;;3.50;;
59587;SDS011;45412;54.472;18.464;2023-04-06T19:21:15;8.90;;;3.30;;
59587;SDS011;45412;54.472;18.464;2023-04-06T19:24:08;8.70;;;2.90;;
59587;SDS011;45412;54.472;18.464;2023-04-06T19:27:04;8.20;;;2.90;;
59587;SDS011;45412;54.472;18.464;2023-04-06T19:29:52;9.80;;;2.90;;
59587;SDS011;45412;54.472;18.464;2023-04-06T19:32:40;7.50;;;2.90;;
59587;SDS011;45412;54.472;18.464;2023-04-06T19:35:28;8.60;;;3.20;;
59587;SDS011;45412;54.472;18.464;2023-04-06T19:38:17;9.40;;;3.20;;
59587;SDS011;45412;54.472;18.464;2023-04-06T19:41:06;10.20;;;2.90;;
59587;SDS011;45412;54.472;18.464;2023-04-06T19:43:54;8.10;;;2.80;;
59587;SDS011;45412;54.472;18.464;2023-04-06T19:46:43;6.70;;;2.50;;
59587;SDS011;45412;54.472;18.464;2023-04-06T19:49:32;8.20;;;2.80;;
59587;SDS011;45412;54.472;18.464;2023-04-06T19:52:21;8.20;;;2.80;;
59587;SDS011;45412;54.472;18.464;2023-04-06T19:55:10;7.10;;;2.50;;
59587;SDS011;45412;54.472;18.464;2023-04-06T19:58:00;8.40;;;3.10;;
59587;SDS011;45412;54.472;18.464;2023-04-06T20:00:48;7.80;;;2.70;;
59587;SDS011;45412;54.472;18.464;2023-04-06T20:03:37;8.20;;;2.90;;
59587;SDS011;45412;54.472;18.464;2023-04-06T20:06:24;7.50;;;2.70;;
59587;SDS011;45412;54.472;18.464;2023-04-06T20:09:13;8.10;;;2.90;;
59587;SDS011;45412;54.472;18.464;2023-04-06T20:12:03;7.40;;;2.40;;
59587;SDS011;45412;54.472;18.464;2023-04-06T20:14:55;7.40;;;2.60;;
59587;SDS011;45412;54.472;18.464;2023-04-06T20:17:44;7.40;;;2.70;;
59587;SDS011;45412;54.472;18.464;2023-04-06T20:20:32;8.70;;;3.00;;
59587;SDS011;45412;54.472;18.464;2023-04-06T20:23:20;7.40;;;3.10;;
59587;SDS011;45412;54.472;18.464;2023-04-06T20:26:08;9.60;;;3.10;;
59587;SDS011;45412;54.472;18.464;2023-04-06T20:28:59;7.30;;;3.20;;
59587;SDS011;45412;54.472;18.464;2023-04-06T20:31:47;8.00;;;2.70;;
59587;SDS011;45412;54.472;18.464;2023-04-06T20:34:36;9.60;;;2.80;;
59587;SDS011;45412;54.472;18.464;2023-04-06T20:37:24;6.80;;;3.10;;
59587;SDS011;45412;54.472;18.464;2023-04-06T20:40:12;8.40;;;2.90;;
59587;SDS011;45412;54.472;18.464;2023-04-06T20:43:00;9.30;;;3.10;;
59587;SDS011;45412;54.472;18.464;2023-04-06T20:45:51;7.80;;;3.00;;
59587;SDS011;45412;54.472;18.464;2023-04-06T20:48:40;7.90;;;2.90;;
59587;SDS011;45412;54.472;18.464;2023-04-06T20:51:29;6.80;;;2.60;;
59587;SDS011;45412;54.472;18.464;2023-04-06T20:54:19;8.00;;;3.20;;
59587;SDS011;45412;54.472;18.464;2023-04-06T20:57:07;6.90;;;2.60;;
59587;SDS011;45412;54.472;18.464;2023-04-06T20:59:56;10.80;;;3.40;;
59587;SDS011;45412;54.472;18.464;2023-04-06T21:02:44;9.50;;;3.20;;
59587;SDS011;45412;54.472;18.464;2023-04-06T21:05:32;10.40;;;3.80;;
59587;SDS011;45412;54.472;18.464;2023-04-06T21:08:23;10.00;;;3.70;;
59587;SDS011;45412;54.472;18.464;2023-04-06T21:11:11;10.70;;;3.80;;
59587;SDS011;45412;54.472;18.464;2023-04-06T21:14:00;7.90;;;3.50;;
59587;SDS011;45412;54.472;18.464;2023-04-06T21:16:47;10.20;;;3.40;;
59587;SDS011;45412;54.472;18.464;2023-04-06T21:19:36;7.50;;;3.00;;
59587;SDS011;45412;54.472;18.464;2023-04-06T21:22:23;8.00;;;3.20;;
59587;SDS011;45412;54.472;18.464;2023-04-06T21:25:12;8.50;;;3.60;;
59587;SDS011;45412;54.472;18.464;2023-04-06T21:28:01;7.90;;;2.70;;
59587;SDS011;45412;54.472;18.464;2023-04-06T21:30:49;8.40;;;3.40;;
59587;SDS011;45412;54.472;18.464;2023-04-06T21:33:38;7.80;;;3.40;;
59587;SDS011;45412;54.472;18.464;2023-04-06T21:36:27;8.10;;;3.00;;
59587;SDS011;45412;54.472;18.464;2023-04-06T21:39:16;10.30;;;3.50;;
59587;SDS011;45412;54.472;18.464;2023-04-06T21:42:04;8.60;;;3.40;;
59587;SDS011;45412;54.472;18.464;2023-04-06T21:44:52;8.10;;;3.40;;
59587;SDS011;45412;54.472;18.464;2023-04-06T21:47:40;8.70;;;2.90;;
59587;SDS011;45412;54.472;18.464;2023-04-06T21:50:29;7.60;;;3.40;;
59587;SDS011;45412;54.472;18.464;2023-04-06T21:53:19;7.60;;;2.90;;
59587;SDS011;45412;54.472;18.464;2023-04-06T21:56:08;7.80;;;2.80;;
59587;SDS011;45412;54.472;18.464;2023-04-06T21:59:00;6.90;;;2.60;;
59587;SDS011;45412;54.472;18.464;2023-04-06T22:01:49;7.20;;;2.90;;
59587;SDS011;45412;54.472;18.464;2023-04-06T22:04:37;8.50;;;3.00;;
59587;SDS011;45412;54.472;18.464;2023-04-06T22:07:25;8.80;;;3.10;;
59587;SDS011;45412;54.472;18.464;2023-04-06T22:10:15;7.90;;;3.20;;
59587;SDS011;45412;54.472;18.464;2023-04-06T22:13:03;8.00;;;3.20;;
59587;SDS011;45412;54.472;18.464;2023-04-06T22:15:51;9.00;;;3.30;;
59587;SDS011;45412;54.472;18.464;2023-04-06T22:18:39;9.70;;;3.20;;
59587;SDS011;45412;54.472;18.464;2023-04-06T22:21:29;7.90;;;3.10;;
59587;SDS011;45412;54.472;18.464;2023-04-06T22:24:17;12.00;;;2.90;;
59587;SDS011;45412;54.472;18.464;2023-04-06T22:27:06;9.30;;;3.20;;
59587;SDS011;45412;54.472;18.464;2023-04-06T22:29:54;7.50;;;2.60;;
59587;SDS011;45412;54.472;18.464;2023-04-06T22:32:42;9.40;;;3.90;;
59587;SDS011;45412;54.472;18.464;2023-04-06T22:35:31;10.10;;;3.60;;
59587;SDS011;45412;54.472;18.464;2023-04-06T22:38:19;9.10;;;3.50;;
59587;SDS011;45412;54.472;18.464;2023-04-06T22:41:07;12.40;;;4.20;;
59587;SDS011;45412;54.472;18.464;2023-04-06T22:43:55;7.90;;;3.10;;
59587;SDS011;45412;54.472;18.464;2023-04-06T22:46:44;11.20;;;4.30;;
59587;SDS011;45412;54.472;18.464;2023-04-06T22:49:32;14.90;;;4.40;;
59587;SDS011;45412;54.472;18.464;2023-04-06T22:52:24;12.40;;;4.10;;
59587;SDS011;45412;54.472;18.464;2023-04-06T22:55:12;8.90;;;3.30;;
59587;SDS011;45412;54.472;18.464;2023-04-06T22:58:04;9.80;;;3.90;;
59587;SDS011;45412;54.472;18.464;2023-04-06T23:00:52;10.50;;;4.20;;
59587;SDS011;45412;54.472;18.464;2023-04-06T23:03:40;11.30;;;4.80;;
59587;SDS011;45412;54.472;18.464;2023-04-06T23:06:29;10.60;;;5.40;;
59587;SDS011;45412;54.472;18.464;2023-04-06T23:09:17;10.50;;;4.60;;
59587;SDS011;45412;54.472;18.464;2023-04-06T23:12:05;9.80;;;3.60;;
59587;SDS011;45412;54.472;18.464;2023-04-06T23:14:54;8.50;;;3.60;;
59587;SDS011;45412;54.472;18.464;2023-04-06T23:17:42;10.00;;;4.60;;
59587;SDS011;45412;54.472;18.464;2023-04-06T23:20:30;10.00;;;4.50;;
59587;SDS011;45412;54.472;18.464;2023-04-06T23:23:18;11.60;;;4.50;;
59587;SDS011;45412;54.472;18.464;2023-04-06T23:26:06;8.80;;;3.90;;
59587;SDS011;45412;54.472;18.464;2023-04-06T23:28:55;11.60;;;5.40;;
59587;SDS011;45412;54.472;18.464;2023-04-06T23:31:43;11.50;;;5.40;;
59587;SDS011;45412;54.472;18.464;2023-04-06T23:34:30;11.70;;;5.10;;
59587;SDS011;45412;54.472;18.464;2023-04-06T23:37:19;14.30;;;5.40;;
59587;SDS011;45412;54.472;18.464;2023-04-06T23:40:07;11.50;;;5.50;;
59587;SDS011;45412;54.472;18.464;2023-04-06T23:42:55;11.70;;;5.30;;
59587;SDS011;45412;54.472;18.464;2023-04-06T23:45:43;15.40;;;6.10;;
59587;SDS011;45412;54.472;18.464;2023-04-06T23:48:32;12.20;;;4.90;;
59587;SDS011;45412;54.472;18.464;2023-04-06T23:51:20;11.60;;;5.30;;
59587;SDS011;45412;54.472;18.464;2023-04-06T23:54:08;12.30;;;5.40;;
59587;SDS011;45412;54.472;18.464;2023-04-06T23:56:56;12.10;;;5.10;;
59587;SDS011;45412;54.472;18.464;2023-04-06T23:59:45;11.40;;;5.60;;
